sensor_id;sensor_type;location;lat;lon;timestamp;temperature;humidity
63317;DHT22;49822;41.468;13.560;2023-06-26T00:00:57;22.60;85.80
63317;DHT22;49822;41.468;13.560;2023-06-26T00:03:24;22.60;85.70
63317;DHT22;49822;41.468;13.560;2023-06-26T00:05:50;22.70;85.50
63317;DHT22;49822;41.468;13.560;2023-06-26T00:08:16;22.80;85.40
63317;DHT22;49822;41.468;13.560;2023-06-26T00:10:42;22.80;85.30
63317;DHT22;49822;41.468;13.560;2023-06-26T00:13:08;22.80;85.30
63317;DHT22;49822;41.468;13.560;2023-06-26T00:15:39;22.80;85.20
63317;DHT22;49822;41.468;13.560;2023-06-26T00:18:06;22.70;85.50
63317;DHT22;49822;41.468;13.560;2023-06-26T00:20:33;22.70;85.30
63317;DHT22;49822;41.468;13.560;2023-06-26T00:23:00;22.70;85.70
63317;DHT22;49822;41.468;13.560;2023-06-26T00:25:26;22.70;85.60
63317;DHT22;49822;41.468;13.560;2023-06-26T00:27:52;22.80;85.60
63317;DHT22;49822;41.468;13.560;2023-06-26T00:30:20;22.90;85.00
63317;DHT22;49822;41.468;13.560;2023-06-26T00:32:48;22.90;85.10
63317;DHT22;49822;41.468;13.560;2023-06-26T00:35:15;22.80;84.90
63317;DHT22;49822;41.468;13.560;2023-06-26T00:37:44;22.80;84.60
63317;DHT22;49822;41.468;13.560;2023-06-26T00:40:10;22.80;85.40
63317;DHT22;49822;41.468;13.560;2023-06-26T00:42:36;22.60;85.10
63317;DHT22;49822;41.468;13.560;2023-06-26T00:45:04;22.60;85.30
63317;DHT22;49822;41.468;13.560;2023-06-26T00:47:30;22.70;85.30
63317;DHT22;49822;41.468;13.560;2023-06-26T00:49:57;22.70;85.20
63317;DHT22;49822;41.468;13.560;2023-06-26T00:52:23;22.60;85.20
63317;DHT22;49822;41.468;13.560;2023-06-26T00:54:50;22.60;85.50
63317;DHT22;49822;41.468;13.560;2023-06-26T00:57:18;22.60;85.20
63317;DHT22;49822;41.468;13.560;2023-06-26T00:59:44;22.60;85.20
63317;DHT22;49822;41.468;13.560;2023-06-26T01:02:12;22.60;85.20
63317;DHT22;49822;41.468;13.560;2023-06-26T01:04:38;22.60;85.20
63317;DHT22;49822;41.468;13.560;2023-06-26T01:07:12;22.50;85.30
63317;DHT22;49822;41.468;13.560;2023-06-26T01:09:39;22.40;85.80
63317;DHT22;49822;41.468;13.560;2023-06-26T01:12:05;22.00;86.50
63317;DHT22;49822;41.468;13.560;2023-06-26T01:14:31;22.00;86.70
63317;DHT22;49822;41.468;13.560;2023-06-26T01:17:00;21.90;86.90
63317;DHT22;49822;41.468;13.560;2023-06-26T01:19:29;21.90;86.70
63317;DHT22;49822;41.468;13.560;2023-06-26T01:22:07;21.90;86.70
63317;DHT22;49822;41.468;13.560;2023-06-26T01:25:03;22.00;86.40
63317;DHT22;49822;41.468;13.560;2023-06-26T01:27:33;22.10;86.30
63317;DHT22;49822;41.468;13.560;2023-06-26T01:30:02;22.10;86.40
63317;DHT22;49822;41.468;13.560;2023-06-26T01:32:34;22.10;86.10
63317;DHT22;49822;41.468;13.560;2023-06-26T01:35:02;22.10;86.10
63317;DHT22;49822;41.468;13.560;2023-06-26T01:37:29;22.00;86.00
63317;DHT22;49822;41.468;13.560;2023-06-26T01:39:55;22.10;86.10
63317;DHT22;49822;41.468;13.560;2023-06-26T01:42:21;22.00;86.10
63317;DHT22;49822;41.468;13.560;2023-06-26T01:44:48;22.00;86.30
63317;DHT22;49822;41.468;13.560;2023-06-26T01:47:21;21.90;86.30
63317;DHT22;49822;41.468;13.560;2023-06-26T01:50:12;22.00;86.20
63317;DHT22;49822;41.468;13.560;2023-06-26T01:52:54;22.00;86.30
63317;DHT22;49822;41.468;13.560;2023-06-26T01:55:47;22.00;86.50
63317;DHT22;49822;41.468;13.560;2023-06-26T01:58:17;21.60;87.40
63317;DHT22;49822;41.468;13.560;2023-06-26T02:00:46;21.50;87.70
63317;DHT22;49822;41.468;13.560;2023-06-26T02:03:12;21.40;87.70
63317;DHT22;49822;41.468;13.560;2023-06-26T02:05:38;21.50;87.80
63317;DHT22;49822;41.468;13.560;2023-06-26T02:08:04;21.50;87.70
63317;DHT22;49822;41.468;13.560;2023-06-26T02:10:31;21.70;87.50
63317;DHT22;49822;41.468;13.560;2023-06-26T02:12:57;21.70;87.20
63317;DHT22;49822;41.468;13.560;2023-06-26T02:15:26;21.80;86.70
63317;DHT22;49822;41.468;13.560;2023-06-26T02:17:54;21.70;86.70
63317;DHT22;49822;41.468;13.560;2023-06-26T02:20:20;21.70;87.00
63317;DHT22;49822;41.468;13.560;2023-06-26T02:22:46;21.70;86.70
63317;DHT22;49822;41.468;13.560;2023-06-26T02:25:13;21.80;86.60
63317;DHT22;49822;41.468;13.560;2023-06-26T02:27:40;21.60;86.50
63317;DHT22;49822;41.468;13.560;2023-06-26T02:30:07;21.60;86.80
63317;DHT22;49822;41.468;13.560;2023-06-26T02:32:36;21.50;86.90
63317;DHT22;49822;41.468;13.560;2023-06-26T02:35:02;21.40;87.30
63317;DHT22;49822;41.468;13.560;2023-06-26T02:37:31;21.40;87.30
63317;DHT22;49822;41.468;13.560;2023-06-26T02:39:57;21.40;88.00
63317;DHT22;49822;41.468;13.560;2023-06-26T02:42:23;21.30;87.30
63317;DHT22;49822;41.468;13.560;2023-06-26T02:44:49;21.10;87.80
63317;DHT22;49822;41.468;13.560;2023-06-26T02:47:16;21.00;88.20
63317;DHT22;49822;41.468;13.560;2023-06-26T02:49:43;21.00;88.10
63317;DHT22;49822;41.468;13.560;2023-06-26T02:52:10;21.10;88.10
63317;DHT22;49822;41.468;13.560;2023-06-26T02:54:37;21.20;88.10
63317;DHT22;49822;41.468;13.560;2023-06-26T02:57:04;21.20;88.30
63317;DHT22;49822;41.468;13.560;2023-06-26T02:59:32;21.30;87.40
63317;DHT22;49822;41.468;13.560;2023-06-26T03:01:58;21.30;87.30
63317;DHT22;49822;41.468;13.560;2023-06-26T03:04:39;21.20;87.10
63317;DHT22;49822;41.468;13.560;2023-06-26T03:07:08;21.30;87.10
63317;DHT22;49822;41.468;13.560;2023-06-26T03:09:36;21.20;87.10
63317;DHT22;49822;41.468;13.560;2023-06-26T03:12:02;21.10;87.40
63317;DHT22;49822;41.468;13.560;2023-06-26T03:14:29;21.10;87.30
63317;DHT22;49822;41.468;13.560;2023-06-26T03:16:57;21.10;87.60
63317;DHT22;49822;41.468;13.560;2023-06-26T03:19:26;21.20;87.00
63317;DHT22;49822;41.468;13.560;2023-06-26T03:22:12;21.10;87.20
63317;DHT22;49822;41.468;13.560;2023-06-26T03:24:38;21.10;87.40
63317;DHT22;49822;41.468;13.560;2023-06-26T03:27:04;21.10;87.60
63317;DHT22;49822;41.468;13.560;2023-06-26T03:29:31;21.10;87.80
63317;DHT22;49822;41.468;13.560;2023-06-26T03:31:57;21.10;87.50
63317;DHT22;49822;41.468;13.560;2023-06-26T03:34:23;21.10;87.60
63317;DHT22;49822;41.468;13.560;2023-06-26T03:36:49;20.90;88.00
63317;DHT22;49822;41.468;13.560;2023-06-26T03:39:16;21.00;87.90
63317;DHT22;49822;41.468;13.560;2023-06-26T03:41:42;21.00;88.00
63317;DHT22;49822;41.468;13.560;2023-06-26T03:44:08;21.00;87.80
63317;DHT22;49822;41.468;13.560;2023-06-26T03:46:41;20.80;88.50
63317;DHT22;49822;41.468;13.560;2023-06-26T03:49:07;20.60;89.10
63317;DHT22;49822;41.468;13.560;2023-06-26T03:51:34;20.60;89.10
63317;DHT22;49822;41.468;13.560;2023-06-26T03:54:00;20.80;89.00
63317;DHT22;49822;41.468;13.560;2023-06-26T03:56:27;20.80;89.10
63317;DHT22;49822;41.468;13.560;2023-06-26T03:58:53;20.70;89.10
63317;DHT22;49822;41.468;13.560;2023-06-26T04:01:19;20.70;89.30
63317;DHT22;49822;41.468;13.560;2023-06-26T04:03:48;20.80;89.40
63317;DHT22;49822;41.468;13.560;2023-06-26T04:06:14;20.80;89.00
63317;DHT22;49822;41.468;13.560;2023-06-26T04:08:40;21.00;88.90
63317;DHT22;49822;41.468;13.560;2023-06-26T04:11:09;21.00;87.80
63317;DHT22;49822;41.468;13.560;2023-06-26T04:13:35;21.00;88.20
63317;DHT22;49822;41.468;13.560;2023-06-26T04:16:01;21.00;88.10
63317;DHT22;49822;41.468;13.560;2023-06-26T04:18:27;21.10;88.10
63317;DHT22;49822;41.468;13.560;2023-06-26T04:21:07;21.20;87.60
63317;DHT22;49822;41.468;13.560;2023-06-26T04:23:33;21.30;87.60
63317;DHT22;49822;41.468;13.560;2023-06-26T04:26:00;21.30;87.50
63317;DHT22;49822;41.468;13.560;2023-06-26T04:28:26;21.30;88.10
63317;DHT22;49822;41.468;13.560;2023-06-26T04:30:52;21.30;88.00
63317;DHT22;49822;41.468;13.560;2023-06-26T04:33:19;21.40;87.50
63317;DHT22;49822;41.468;13.560;2023-06-26T04:35:45;21.50;87.40
63317;DHT22;49822;41.468;13.560;2023-06-26T04:38:15;21.50;87.20
63317;DHT22;49822;41.468;13.560;2023-06-26T04:40:41;21.60;87.20
63317;DHT22;49822;41.468;13.560;2023-06-26T04:43:07;21.70;86.80
63317;DHT22;49822;41.468;13.560;2023-06-26T04:45:34;21.80;86.70
63317;DHT22;49822;41.468;13.560;2023-06-26T04:48:02;21.90;86.40
63317;DHT22;49822;41.468;13.560;2023-06-26T04:50:29;22.00;86.50
63317;DHT22;49822;41.468;13.560;2023-06-26T04:52:56;22.10;86.60
63317;DHT22;49822;41.468;13.560;2023-06-26T04:55:24;22.20;86.70
63317;DHT22;49822;41.468;13.560;2023-06-26T04:57:51;22.30;86.40
63317;DHT22;49822;41.468;13.560;2023-06-26T05:00:19;22.30;86.00
63317;DHT22;49822;41.468;13.560;2023-06-26T05:02:48;22.40;85.60
63317;DHT22;49822;41.468;13.560;2023-06-26T05:05:14;22.50;85.70
63317;DHT22;49822;41.468;13.560;2023-06-26T05:07:41;22.60;85.80
63317;DHT22;49822;41.468;13.560;2023-06-26T05:10:13;22.70;85.70
63317;DHT22;49822;41.468;13.560;2023-06-26T05:12:42;22.80;85.40
63317;DHT22;49822;41.468;13.560;2023-06-26T05:15:11;22.80;85.50
63317;DHT22;49822;41.468;13.560;2023-06-26T05:17:37;22.90;85.60
63317;DHT22;49822;41.468;13.560;2023-06-26T05:20:05;23.00;85.50
63317;DHT22;49822;41.468;13.560;2023-06-26T05:22:33;23.10;85.80
63317;DHT22;49822;41.468;13.560;2023-06-26T05:25:03;23.20;85.40
63317;DHT22;49822;41.468;13.560;2023-06-26T05:27:33;23.20;84.80
63317;DHT22;49822;41.468;13.560;2023-06-26T05:29:59;23.40;85.30
63317;DHT22;49822;41.468;13.560;2023-06-26T05:32:26;23.40;85.20
63317;DHT22;49822;41.468;13.560;2023-06-26T05:34:54;23.60;85.70
63317;DHT22;49822;41.468;13.560;2023-06-26T05:37:21;23.60;85.80
63317;DHT22;49822;41.468;13.560;2023-06-26T05:39:48;23.60;84.90
63317;DHT22;49822;41.468;13.560;2023-06-26T05:42:15;23.60;84.70
63317;DHT22;49822;41.468;13.560;2023-06-26T05:44:41;23.80;84.20
63317;DHT22;49822;41.468;13.560;2023-06-26T05:47:07;23.80;84.20
63317;DHT22;49822;41.468;13.560;2023-06-26T05:49:34;23.90;84.10
63317;DHT22;49822;41.468;13.560;2023-06-26T05:52:00;24.00;84.00
63317;DHT22;49822;41.468;13.560;2023-06-26T05:54:26;24.20;83.80
63317;DHT22;49822;41.468;13.560;2023-06-26T05:56:57;24.30;83.70
63317;DHT22;49822;41.468;13.560;2023-06-26T06:02:48;24.50;83.60
63317;DHT22;49822;41.468;13.560;2023-06-26T06:05:14;24.60;83.40
63317;DHT22;49822;41.468;13.560;2023-06-26T06:07:40;24.70;82.80
63317;DHT22;49822;41.468;13.560;2023-06-26T06:10:07;24.80;82.00
63317;DHT22;49822;41.468;13.560;2023-06-26T06:12:33;24.90;82.30
63317;DHT22;49822;41.468;13.560;2023-06-26T06:14:59;24.90;82.00
63317;DHT22;49822;41.468;13.560;2023-06-26T06:17:26;25.10;81.50
63317;DHT22;49822;41.468;13.560;2023-06-26T06:19:52;25.10;81.40
63317;DHT22;49822;41.468;13.560;2023-06-26T06:25:28;25.20;81.20
63317;DHT22;49822;41.468;13.560;2023-06-26T06:27:55;25.20;81.20
63317;DHT22;49822;41.468;13.560;2023-06-26T06:30:23;25.20;80.20
63317;DHT22;49822;41.468;13.560;2023-06-26T06:32:51;25.30;81.00
63317;DHT22;49822;41.468;13.560;2023-06-26T06:35:21;25.40;81.00
63317;DHT22;49822;41.468;13.560;2023-06-26T06:37:47;25.40;79.70
63317;DHT22;49822;41.468;13.560;2023-06-26T06:40:15;25.40;80.90
63317;DHT22;49822;41.468;13.560;2023-06-26T06:42:41;25.50;78.70
63317;DHT22;49822;41.468;13.560;2023-06-26T06:45:10;25.40;79.40
63317;DHT22;49822;41.468;13.560;2023-06-26T06:47:36;25.50;78.80
63317;DHT22;49822;41.468;13.560;2023-06-26T06:50:03;25.40;78.80
63317;DHT22;49822;41.468;13.560;2023-06-26T06:52:38;25.60;78.60
63317;DHT22;49822;41.468;13.560;2023-06-26T06:55:07;25.70;78.80
63317;DHT22;49822;41.468;13.560;2023-06-26T06:57:36;25.70;78.00
63317;DHT22;49822;41.468;13.560;2023-06-26T07:00:07;25.80;78.10
63317;DHT22;49822;41.468;13.560;2023-06-26T07:02:39;26.00;78.40
63317;DHT22;49822;41.468;13.560;2023-06-26T07:05:07;26.00;77.70
63317;DHT22;49822;41.468;13.560;2023-06-26T07:07:39;26.10;76.50
63317;DHT22;49822;41.468;13.560;2023-06-26T07:10:09;26.10;76.40
63317;DHT22;49822;41.468;13.560;2023-06-26T07:12:37;26.30;76.70
63317;DHT22;49822;41.468;13.560;2023-06-26T07:15:05;26.30;76.70
63317;DHT22;49822;41.468;13.560;2023-06-26T07:17:34;26.50;74.30
63317;DHT22;49822;41.468;13.560;2023-06-26T07:20:01;26.50;74.80
63317;DHT22;49822;41.468;13.560;2023-06-26T07:22:30;26.60;73.40
63317;DHT22;49822;41.468;13.560;2023-06-26T07:24:56;26.50;72.60
63317;DHT22;49822;41.468;13.560;2023-06-26T07:27:22;26.40;72.00
63317;DHT22;49822;41.468;13.560;2023-06-26T07:29:48;26.40;74.00
63317;DHT22;49822;41.468;13.560;2023-06-26T07:32:14;26.50;73.40
63317;DHT22;49822;41.468;13.560;2023-06-26T07:34:41;26.60;73.40
63317;DHT22;49822;41.468;13.560;2023-06-26T07:37:07;26.80;74.00
63317;DHT22;49822;41.468;13.560;2023-06-26T07:39:33;26.70;72.40
63317;DHT22;49822;41.468;13.560;2023-06-26T07:41:59;26.80;73.30
63317;DHT22;49822;41.468;13.560;2023-06-26T07:44:25;26.90;72.20
63317;DHT22;49822;41.468;13.560;2023-06-26T07:46:52;27.00;72.20
63317;DHT22;49822;41.468;13.560;2023-06-26T07:49:18;27.10;72.40
63317;DHT22;49822;41.468;13.560;2023-06-26T07:51:45;27.10;72.60
63317;DHT22;49822;41.468;13.560;2023-06-26T07:54:11;27.20;72.60
63317;DHT22;49822;41.468;13.560;2023-06-26T07:57:00;27.40;71.30
63317;DHT22;49822;41.468;13.560;2023-06-26T07:59:27;27.50;71.90
63317;DHT22;49822;41.468;13.560;2023-06-26T08:01:55;27.50;71.20
63317;DHT22;49822;41.468;13.560;2023-06-26T08:04:25;27.70;71.90
63317;DHT22;49822;41.468;13.560;2023-06-26T08:06:54;27.70;72.30
63317;DHT22;49822;41.468;13.560;2023-06-26T08:09:21;27.70;71.90
63317;DHT22;49822;41.468;13.560;2023-06-26T08:11:48;27.80;71.00
63317;DHT22;49822;41.468;13.560;2023-06-26T08:14:15;28.00;71.70
63317;DHT22;49822;41.468;13.560;2023-06-26T08:16:44;28.10;70.60
63317;DHT22;49822;41.468;13.560;2023-06-26T08:19:14;28.20;70.70
63317;DHT22;49822;41.468;13.560;2023-06-26T08:21:45;28.20;71.40
63317;DHT22;49822;41.468;13.560;2023-06-26T08:24:11;28.30;70.80
63317;DHT22;49822;41.468;13.560;2023-06-26T08:26:46;28.40;71.20
63317;DHT22;49822;41.468;13.560;2023-06-26T08:29:16;28.50;70.70
63317;DHT22;49822;41.468;13.560;2023-06-26T08:31:43;28.40;70.20
63317;DHT22;49822;41.468;13.560;2023-06-26T08:34:10;28.60;69.30
63317;DHT22;49822;41.468;13.560;2023-06-26T08:36:37;28.60;67.90
63317;DHT22;49822;41.468;13.560;2023-06-26T08:39:06;28.40;68.60
63317;DHT22;49822;41.468;13.560;2023-06-26T08:41:34;28.30;69.40
63317;DHT22;49822;41.468;13.560;2023-06-26T08:44:02;28.60;70.50
63317;DHT22;49822;41.468;13.560;2023-06-26T08:46:30;28.50;69.60
63317;DHT22;49822;41.468;13.560;2023-06-26T08:49:01;28.60;69.90
63317;DHT22;49822;41.468;13.560;2023-06-26T08:51:31;28.60;69.70
63317;DHT22;49822;41.468;13.560;2023-06-26T08:54:09;28.60;68.00
63317;DHT22;49822;41.468;13.560;2023-06-26T08:56:41;28.80;70.60
63317;DHT22;49822;41.468;13.560;2023-06-26T08:59:09;28.80;69.20
63317;DHT22;49822;41.468;13.560;2023-06-26T09:01:55;28.80;69.90
63317;DHT22;49822;41.468;13.560;2023-06-26T09:04:22;28.90;69.50
63317;DHT22;49822;41.468;13.560;2023-06-26T09:06:50;28.90;70.50
63317;DHT22;49822;41.468;13.560;2023-06-26T09:09:18;29.00;69.90
63317;DHT22;49822;41.468;13.560;2023-06-26T09:11:46;29.10;69.30
63317;DHT22;49822;41.468;13.560;2023-06-26T09:14:13;29.30;67.80
63317;DHT22;49822;41.468;13.560;2023-06-26T09:16:40;29.40;68.70
63317;DHT22;49822;41.468;13.560;2023-06-26T09:19:10;29.40;70.00
63317;DHT22;49822;41.468;13.560;2023-06-26T09:21:42;29.50;68.90
63317;DHT22;49822;41.468;13.560;2023-06-26T09:24:10;29.60;68.10
63317;DHT22;49822;41.468;13.560;2023-06-26T09:26:37;29.70;69.10
63317;DHT22;49822;41.468;13.560;2023-06-26T09:29:05;29.70;67.70
63317;DHT22;49822;41.468;13.560;2023-06-26T09:31:33;29.80;68.40
63317;DHT22;49822;41.468;13.560;2023-06-26T09:34:00;30.00;68.10
63317;DHT22;49822;41.468;13.560;2023-06-26T09:36:29;30.10;67.50
63317;DHT22;49822;41.468;13.560;2023-06-26T09:39:03;30.00;67.40
63317;DHT22;49822;41.468;13.560;2023-06-26T09:41:43;30.00;67.30
63317;DHT22;49822;41.468;13.560;2023-06-26T09:44:13;29.90;69.50
63317;DHT22;49822;41.468;13.560;2023-06-26T09:46:39;29.90;66.30
63317;DHT22;49822;41.468;13.560;2023-06-26T09:49:10;29.90;67.60
63317;DHT22;49822;41.468;13.560;2023-06-26T09:51:39;30.10;68.20
63317;DHT22;49822;41.468;13.560;2023-06-26T09:54:06;30.20;69.30
63317;DHT22;49822;41.468;13.560;2023-06-26T09:56:33;30.10;67.70
63317;DHT22;49822;41.468;13.560;2023-06-26T09:59:01;30.10;67.60
63317;DHT22;49822;41.468;13.560;2023-06-26T10:01:28;30.20;68.40
63317;DHT22;49822;41.468;13.560;2023-06-26T10:03:55;30.40;67.10
63317;DHT22;49822;41.468;13.560;2023-06-26T10:06:40;30.60;67.30
63317;DHT22;49822;41.468;13.560;2023-06-26T10:09:07;30.70;65.40
63317;DHT22;49822;41.468;13.560;2023-06-26T10:11:44;30.60;65.90
63317;DHT22;49822;41.468;13.560;2023-06-26T10:14:14;30.60;65.40
63317;DHT22;49822;41.468;13.560;2023-06-26T10:16:42;30.60;67.30
63317;DHT22;49822;41.468;13.560;2023-06-26T10:19:10;30.70;65.50
63317;DHT22;49822;41.468;13.560;2023-06-26T10:21:38;30.70;67.00
63317;DHT22;49822;41.468;13.560;2023-06-26T10:37:12;31.60;63.80
63317;DHT22;49822;41.468;13.560;2023-06-26T10:39:49;31.50;64.80
63317;DHT22;49822;41.468;13.560;2023-06-26T10:42:19;31.50;65.40
63317;DHT22;49822;41.468;13.560;2023-06-26T10:44:48;31.70;64.10
63317;DHT22;49822;41.468;13.560;2023-06-26T10:47:32;31.80;65.50
63317;DHT22;49822;41.468;13.560;2023-06-26T10:50:23;31.60;64.70
63317;DHT22;49822;41.468;13.560;2023-06-26T10:55:54;31.70;64.20
63317;DHT22;49822;41.468;13.560;2023-06-26T10:58:31;31.90;63.60
63317;DHT22;49822;41.468;13.560;2023-06-26T11:01:17;32.10;63.00
63317;DHT22;49822;41.468;13.560;2023-06-26T11:03:46;32.20;64.10
63317;DHT22;49822;41.468;13.560;2023-06-26T11:06:17;32.30;64.00
63317;DHT22;49822;41.468;13.560;2023-06-26T11:08:54;32.40;63.80
63317;DHT22;49822;41.468;13.560;2023-06-26T11:14:21;32.70;63.30
63317;DHT22;49822;41.468;13.560;2023-06-26T11:16:48;32.80;62.10
63317;DHT22;49822;41.468;13.560;2023-06-26T11:19:17;32.90;61.90
63317;DHT22;49822;41.468;13.560;2023-06-26T11:21:44;32.80;62.10
63317;DHT22;49822;41.468;13.560;2023-06-26T11:24:12;32.90;62.60
63317;DHT22;49822;41.468;13.560;2023-06-26T11:26:45;33.00;62.50
63317;DHT22;49822;41.468;13.560;2023-06-26T11:29:13;33.10;63.10
63317;DHT22;49822;41.468;13.560;2023-06-26T11:31:41;33.20;60.60
63317;DHT22;49822;41.468;13.560;2023-06-26T11:34:10;33.20;61.50
63317;DHT22;49822;41.468;13.560;2023-06-26T11:36:38;33.40;61.80
63317;DHT22;49822;41.468;13.560;2023-06-26T11:39:06;33.40;62.80
63317;DHT22;49822;41.468;13.560;2023-06-26T11:41:33;33.50;61.10
63317;DHT22;49822;41.468;13.560;2023-06-26T11:44:03;33.60;61.80
63317;DHT22;49822;41.468;13.560;2023-06-26T11:46:30;33.70;61.20
63317;DHT22;49822;41.468;13.560;2023-06-26T11:48:57;33.80;59.80
63317;DHT22;49822;41.468;13.560;2023-06-26T11:51:26;33.90;60.00
63317;DHT22;49822;41.468;13.560;2023-06-26T11:53:52;33.80;60.10
63317;DHT22;49822;41.468;13.560;2023-06-26T11:56:19;33.40;60.90
63317;DHT22;49822;41.468;13.560;2023-06-26T11:59:08;33.30;60.70
63317;DHT22;49822;41.468;13.560;2023-06-26T12:01:44;33.70;60.90
63317;DHT22;49822;41.468;13.560;2023-06-26T12:04:12;33.80;61.10
63317;DHT22;49822;41.468;13.560;2023-06-26T12:06:40;33.90;59.90
63317;DHT22;49822;41.468;13.560;2023-06-26T12:09:09;33.70;58.10
63317;DHT22;49822;41.468;13.560;2023-06-26T12:11:42;33.40;58.70
63317;DHT22;49822;41.468;13.560;2023-06-26T12:14:09;33.60;60.00
63317;DHT22;49822;41.468;13.560;2023-06-26T12:16:36;33.60;58.60
63317;DHT22;49822;41.468;13.560;2023-06-26T12:19:05;33.70;60.10
63317;DHT22;49822;41.468;13.560;2023-06-26T12:21:45;33.80;57.90
63317;DHT22;49822;41.468;13.560;2023-06-26T12:24:21;33.70;59.90
63317;DHT22;49822;41.468;13.560;2023-06-26T12:26:51;33.70;58.50
63317;DHT22;49822;41.468;13.560;2023-06-26T12:29:20;33.60;57.60
63317;DHT22;49822;41.468;13.560;2023-06-26T12:31:52;33.60;58.60
63317;DHT22;49822;41.468;13.560;2023-06-26T12:34:21;33.90;59.90
63317;DHT22;49822;41.468;13.560;2023-06-26T12:36:51;33.90;58.70
63317;DHT22;49822;41.468;13.560;2023-06-26T12:39:20;34.10;59.40
63317;DHT22;49822;41.468;13.560;2023-06-26T12:42:00;34.30;58.80
63317;DHT22;49822;41.468;13.560;2023-06-26T12:44:31;34.40;58.70
63317;DHT22;49822;41.468;13.560;2023-06-26T12:47:01;34.20;56.40
63317;DHT22;49822;41.468;13.560;2023-06-26T12:49:35;34.30;56.80
63317;DHT22;49822;41.468;13.560;2023-06-26T12:52:08;34.30;57.60
63317;DHT22;49822;41.468;13.560;2023-06-26T12:54:36;34.50;58.30
63317;DHT22;49822;41.468;13.560;2023-06-26T12:57:04;34.60;58.10
63317;DHT22;49822;41.468;13.560;2023-06-26T12:59:32;34.70;57.00
63317;DHT22;49822;41.468;13.560;2023-06-26T13:01:59;34.70;56.10
63317;DHT22;49822;41.468;13.560;2023-06-26T13:04:27;34.80;55.80
63317;DHT22;49822;41.468;13.560;2023-06-26T13:06:53;34.80;56.50
63317;DHT22;49822;41.468;13.560;2023-06-26T13:09:23;34.90;56.20
63317;DHT22;49822;41.468;13.560;2023-06-26T13:11:51;34.90;55.30
63317;DHT22;49822;41.468;13.560;2023-06-26T13:14:17;35.00;54.80
63317;DHT22;49822;41.468;13.560;2023-06-26T13:16:44;34.90;55.70
63317;DHT22;49822;41.468;13.560;2023-06-26T13:19:10;35.10;56.70
63317;DHT22;49822;41.468;13.560;2023-06-26T13:21:37;34.90;54.90
63317;DHT22;49822;41.468;13.560;2023-06-26T13:24:03;35.00;55.40
63317;DHT22;49822;41.468;13.560;2023-06-26T13:26:30;35.10;56.00
63317;DHT22;49822;41.468;13.560;2023-06-26T13:28:58;35.20;56.70
63317;DHT22;49822;41.468;13.560;2023-06-26T13:31:25;35.30;56.90
63317;DHT22;49822;41.468;13.560;2023-06-26T13:33:56;35.40;56.80
63317;DHT22;49822;41.468;13.560;2023-06-26T13:36:23;35.40;55.60
63317;DHT22;49822;41.468;13.560;2023-06-26T13:38:49;35.60;55.20
63317;DHT22;49822;41.468;13.560;2023-06-26T13:41:24;35.70;55.70
63317;DHT22;49822;41.468;13.560;2023-06-26T13:43:51;35.60;54.40
63317;DHT22;49822;41.468;13.560;2023-06-26T13:46:17;35.40;55.60
63317;DHT22;49822;41.468;13.560;2023-06-26T13:48:47;35.60;56.50
63317;DHT22;49822;41.468;13.560;2023-06-26T13:51:14;35.70;55.10
63317;DHT22;49822;41.468;13.560;2023-06-26T13:53:40;35.70;54.50
63317;DHT22;49822;41.468;13.560;2023-06-26T13:56:06;35.60;53.20
63317;DHT22;49822;41.468;13.560;2023-06-26T13:58:35;35.70;55.30
63317;DHT22;49822;41.468;13.560;2023-06-26T14:01:02;35.80;55.60
63317;DHT22;49822;41.468;13.560;2023-06-26T14:03:28;36.00;55.20
63317;DHT22;49822;41.468;13.560;2023-06-26T14:05:54;36.00;55.60
63317;DHT22;49822;41.468;13.560;2023-06-26T14:08:21;35.90;53.50
63317;DHT22;49822;41.468;13.560;2023-06-26T14:10:47;35.80;52.80
63317;DHT22;49822;41.468;13.560;2023-06-26T14:13:16;35.90;52.80
63317;DHT22;49822;41.468;13.560;2023-06-26T14:15:43;35.80;53.70
63317;DHT22;49822;41.468;13.560;2023-06-26T14:18:09;35.70;52.90
63317;DHT22;49822;41.468;13.560;2023-06-26T14:20:35;35.70;53.30
63317;DHT22;49822;41.468;13.560;2023-06-26T14:23:02;35.60;53.90
63317;DHT22;49822;41.468;13.560;2023-06-26T14:25:28;35.10;55.30
63317;DHT22;49822;41.468;13.560;2023-06-26T14:27:58;34.60;56.80
63317;DHT22;49822;41.468;13.560;2023-06-26T14:30:27;33.90;60.40
63317;DHT22;49822;41.468;13.560;2023-06-26T14:32:53;33.70;60.80
63317;DHT22;49822;41.468;13.560;2023-06-26T14:35:19;33.10;60.80
63317;DHT22;49822;41.468;13.560;2023-06-26T14:37:45;32.90;62.10
63317;DHT22;49822;41.468;13.560;2023-06-26T14:40:12;32.90;61.10
63317;DHT22;49822;41.468;13.560;2023-06-26T14:42:38;32.60;61.40
63317;DHT22;49822;41.468;13.560;2023-06-26T14:45:06;32.60;62.70
63317;DHT22;49822;41.468;13.560;2023-06-26T14:47:32;32.40;63.20
63317;DHT22;49822;41.468;13.560;2023-06-26T14:49:58;32.20;63.30
63317;DHT22;49822;41.468;13.560;2023-06-26T14:52:24;32.30;62.80
63317;DHT22;49822;41.468;13.560;2023-06-26T14:54:50;32.50;63.70
63317;DHT22;49822;41.468;13.560;2023-06-26T14:57:17;32.40;63.60
63317;DHT22;49822;41.468;13.560;2023-06-26T14:59:43;32.30;63.60
63317;DHT22;49822;41.468;13.560;2023-06-26T15:02:09;32.20;64.00
63317;DHT22;49822;41.468;13.560;2023-06-26T15:04:37;32.20;64.70
63317;DHT22;49822;41.468;13.560;2023-06-26T15:07:05;32.20;65.60
63317;DHT22;49822;41.468;13.560;2023-06-26T15:09:31;32.10;65.60
63317;DHT22;49822;41.468;13.560;2023-06-26T15:11:58;32.20;65.70
63317;DHT22;49822;41.468;13.560;2023-06-26T15:14:24;32.20;65.30
63317;DHT22;49822;41.468;13.560;2023-06-26T15:16:50;31.80;66.40
63317;DHT22;49822;41.468;13.560;2023-06-26T15:19:17;31.70;66.40
63317;DHT22;49822;41.468;13.560;2023-06-26T15:21:44;31.60;67.60
63317;DHT22;49822;41.468;13.560;2023-06-26T15:24:10;31.60;67.30
63317;DHT22;49822;41.468;13.560;2023-06-26T15:26:36;31.70;67.10
63317;DHT22;49822;41.468;13.560;2023-06-26T15:29:03;31.60;66.70
63317;DHT22;49822;41.468;13.560;2023-06-26T15:31:29;31.20;67.00
63317;DHT22;49822;41.468;13.560;2023-06-26T15:33:58;31.20;66.60
63317;DHT22;49822;41.468;13.560;2023-06-26T15:36:26;31.40;67.50
63317;DHT22;49822;41.468;13.560;2023-06-26T15:38:52;31.20;66.50
63317;DHT22;49822;41.468;13.560;2023-06-26T15:41:19;30.90;67.20
63317;DHT22;49822;41.468;13.560;2023-06-26T15:43:47;30.80;67.60
63317;DHT22;49822;41.468;13.560;2023-06-26T15:46:14;30.80;67.80
63317;DHT22;49822;41.468;13.560;2023-06-26T15:48:41;30.70;68.30